createdAt,value
2017-01-13T00:00:48.656Z,12
2017-01-13T00:01:59.496Z,12
2017-01-13T00:03:10.769Z,12
2017-01-13T00:04:21.729Z,12
2017-01-13T00:05:32.714Z,12
2017-01-13T00:06:43.775Z,12
2017-01-13T00:07:54.785Z,12
2017-01-13T00:09:06.120Z,12
2017-01-13T00:10:17.065Z,4
2017-01-13T00:11:28.072Z,16
2017-01-13T00:12:39.083Z,12
2017-01-13T00:13:49.981Z,12
2017-01-13T00:15:00.939Z,12
2017-01-13T00:16:11.683Z,12
2017-01-13T00:17:22.321Z,12
2017-01-13T00:18:47.527Z,12
2017-01-13T00:19:58.399Z,12
2017-01-13T00:21:09.106Z,12
2017-01-13T00:22:19.769Z,12
2017-01-13T00:23:30.441Z,12
2017-01-13T00:24:41.085Z,12
2017-01-13T00:25:51.993Z,12
2017-01-13T00:27:02.744Z,12
2017-01-13T00:28:13.417Z,12
2017-01-13T00:29:24.126Z,12
2017-01-13T00:30:34.797Z,12
2017-01-13T00:31:45.694Z,12
2017-01-13T00:32:56.486Z,12
2017-01-13T00:34:07.232Z,12
2017-01-13T00:35:17.974Z,12
2017-01-13T00:36:28.630Z,12
2017-01-13T00:37:39.670Z,12
2017-01-13T00:38:50.449Z,12
2017-01-13T00:40:01.118Z,12
2017-01-13T00:41:11.769Z,12
2017-01-13T00:42:22.353Z,12
2017-01-13T00:43:33.154Z,12
2017-01-13T00:44:43.793Z,12
2017-01-13T00:45:54.419Z,12
2017-01-13T00:47:05.052Z,12
2017-01-13T00:48:30.407Z,12
2017-01-13T00:49:41.085Z,12
2017-01-13T00:50:51.823Z,8
2017-01-13T00:52:02.597Z,12
2017-01-13T00:53:13.356Z,12
2017-01-13T00:54:24.318Z,4
2017-01-13T00:55:35.121Z,12
2017-01-13T00:57:00.286Z,12
2017-01-13T00:58:11.009Z,12
2017-01-13T00:59:21.948Z,12
2017-01-13T01:00:32.740Z,12
2017-01-13T01:01:44.112Z,12
2017-01-13T01:02:54.850Z,12
2017-01-13T01:04:05.557Z,12
2017-01-13T01:05:16.416Z,12
2017-01-13T01:06:27.142Z,12
2017-01-13T01:07:38.432Z,12
2017-01-13T01:08:49.687Z,12
2017-01-13T01:10:00.303Z,12
2017-01-13T01:11:10.886Z,12
2017-01-13T01:12:21.466Z,12
2017-01-13T01:13:32.047Z,12
2017-01-13T01:14:42.630Z,12
2017-01-13T01:16:07.972Z,12
2017-01-13T01:17:18.570Z,12
2017-01-13T01:18:29.198Z,12
2017-01-13T01:19:39.786Z,12
2017-01-13T01:20:50.380Z,12
2017-01-13T01:22:01.322Z,12
2017-01-13T01:23:11.904Z,12
2017-01-13T01:24:22.481Z,12
2017-01-13T01:25:33.061Z,12
2017-01-13T01:26:43.643Z,12
2017-01-13T01:27:54.269Z,12
2017-01-13T01:29:19.364Z,12
2017-01-13T01:30:29.946Z,12
2017-01-13T01:31:40.527Z,12
2017-01-13T01:32:51.306Z,12
2017-01-13T01:34:01.885Z,12
2017-01-13T01:35:12.467Z,12
2017-01-13T01:36:23.049Z,12
2017-01-13T01:37:33.638Z,12
2017-01-13T01:38:44.219Z,12
2017-01-13T01:39:54.796Z,12
2017-01-13T01:41:05.429Z,12
2017-01-13T01:42:16.008Z,12
2017-01-13T01:43:26.591Z,12
2017-01-13T01:44:37.179Z,12
2017-01-13T01:45:47.795Z,12
2017-01-13T01:46:58.384Z,12
2017-01-13T01:48:08.970Z,12
2017-01-13T01:49:19.558Z,12
2017-01-13T01:50:30.145Z,12
2017-01-13T01:51:40.733Z,12
2017-01-13T01:52:51.325Z,12
2017-01-13T01:54:02.002Z,12
2017-01-13T01:55:12.731Z,12
2017-01-13T01:56:23.663Z,12
2017-01-13T01:57:34.253Z,12
2017-01-13T01:58:45.242Z,12
2017-01-13T01:59:55.924Z,12
2017-01-13T02:01:06.665Z,12
2017-01-13T02:02:17.823Z,12
2017-01-13T02:03:28.629Z,12
2017-01-13T02:04:53.931Z,12
2017-01-13T02:06:04.738Z,12
2017-01-13T02:07:15.894Z,12
2017-01-13T02:08:26.708Z,12
2017-01-13T02:09:37.513Z,12
2017-01-13T02:10:48.321Z,12
2017-01-13T02:11:59.128Z,12
2017-01-13T02:13:10.184Z,12
2017-01-13T02:14:21.004Z,12
2017-01-13T02:15:31.806Z,12
2017-01-13T02:16:42.647Z,12
2017-01-13T02:17:53.471Z,12
2017-01-13T02:19:04.639Z,12
2017-01-13T02:20:15.476Z,12
2017-01-13T02:21:26.323Z,12
2017-01-13T02:22:37.255Z,12
2017-01-13T02:24:02.911Z,12
2017-01-13T02:25:14.334Z,12
2017-01-13T02:26:25.171Z,12
2017-01-13T02:27:35.976Z,12
2017-01-13T02:28:46.782Z,12
2017-01-13T02:29:57.939Z,12
2017-01-13T02:31:08.745Z,12
2017-01-13T02:32:19.549Z,12
2017-01-13T02:33:30.352Z,12
2017-01-13T02:34:41.153Z,12
2017-01-13T02:35:51.963Z,12
2017-01-13T02:37:02.769Z,8
2017-01-13T02:38:13.576Z,8
2017-01-13T02:39:24.382Z,8
2017-01-13T02:40:35.188Z,8
2017-01-13T02:41:46.200Z,8
2017-01-13T02:42:56.856Z,8
2017-01-13T02:44:07.436Z,12
2017-01-13T02:45:18.013Z,12
2017-01-13T02:46:28.753Z,8
2017-01-13T02:47:39.760Z,12
2017-01-13T02:48:50.571Z,12
2017-01-13T02:50:01.376Z,12
2017-01-13T02:51:12.183Z,8
2017-01-13T02:52:22.990Z,12
2017-01-13T02:53:33.793Z,8
2017-01-13T02:54:44.596Z,12
2017-01-13T02:55:55.401Z,8
2017-01-13T02:57:06.235Z,12
2017-01-13T02:58:17.041Z,12
2017-01-13T02:59:27.849Z,12
2017-01-13T03:00:38.656Z,8
2017-01-13T03:01:49.463Z,8
2017-01-13T03:03:00.266Z,12
2017-01-13T03:04:11.075Z,8
2017-01-13T03:05:21.881Z,12
2017-01-13T03:06:32.687Z,8
2017-01-13T03:07:43.446Z,4
2017-01-13T03:08:54.208Z,12
2017-01-13T03:10:04.973Z,12
2017-01-13T03:11:16.133Z,12
2017-01-13T03:12:26.941Z,12
2017-01-13T03:13:37.700Z,12
2017-01-13T03:14:48.455Z,12
2017-01-13T03:16:00.409Z,12
2017-01-13T03:17:10.985Z,12
2017-01-13T03:18:36.140Z,12
2017-01-13T03:19:46.907Z,12
2017-01-13T03:20:57.700Z,12
2017-01-13T03:22:09.011Z,12
2017-01-13T03:23:19.840Z,12
2017-01-13T03:24:30.720Z,12
2017-01-13T03:25:41.547Z,12
2017-01-13T03:26:52.220Z,12
2017-01-13T03:28:02.994Z,12
2017-01-13T03:29:13.715Z,12
2017-01-13T03:30:24.479Z,12
2017-01-13T03:31:35.310Z,12
2017-01-13T03:33:00.853Z,12
2017-01-13T03:34:11.713Z,12
2017-01-13T03:35:22.647Z,12
2017-01-13T03:36:33.444Z,12
2017-01-13T03:37:44.187Z,12
2017-01-13T03:38:54.971Z,12
2017-01-13T03:40:06.366Z,12
2017-01-13T03:41:17.189Z,12
2017-01-13T03:42:28.000Z,12
2017-01-13T03:43:38.820Z,12
2017-01-13T03:44:49.632Z,12
2017-01-13T03:46:00.440Z,12
2017-01-13T03:47:11.246Z,12
2017-01-13T03:48:22.083Z,12
2017-01-13T03:49:32.891Z,12
2017-01-13T03:50:44.054Z,12
2017-01-13T03:51:54.864Z,8
2017-01-13T03:53:05.669Z,12
2017-01-13T03:54:16.483Z,12
2017-01-13T03:55:27.292Z,12
2017-01-13T03:56:38.099Z,12
2017-01-13T03:57:48.907Z,12
2017-01-13T03:58:59.718Z,12
2017-01-13T04:00:10.518Z,12
2017-01-13T04:01:21.327Z,12
2017-01-13T04:02:32.334Z,12
2017-01-13T04:03:43.136Z,12
2017-01-13T04:04:53.946Z,12
2017-01-13T04:06:04.761Z,12
2017-01-13T04:07:15.566Z,12
2017-01-13T04:08:26.374Z,12
2017-01-13T04:09:37.784Z,12
2017-01-13T04:10:48.591Z,12
2017-01-13T04:11:59.400Z,12
2017-01-13T04:13:10.816Z,12
2017-01-13T04:14:21.623Z,12
2017-01-13T04:15:32.433Z,12
2017-01-13T04:16:43.261Z,8
2017-01-13T04:17:54.065Z,12
2017-01-13T04:19:04.869Z,12
2017-01-13T04:20:15.873Z,12
2017-01-13T04:21:26.682Z,12
2017-01-13T04:22:37.488Z,12
2017-01-13T04:23:48.293Z,12
2017-01-13T04:24:59.100Z,12
2017-01-13T04:26:09.906Z,12
2017-01-13T04:27:20.714Z,12
2017-01-13T04:28:31.518Z,12
2017-01-13T04:29:42.318Z,12
2017-01-13T04:30:53.128Z,12
2017-01-13T04:32:04.284Z,12
2017-01-13T04:33:15.093Z,12
2017-01-13T04:34:25.901Z,12
2017-01-13T04:35:36.709Z,12
2017-01-13T04:36:47.538Z,12
2017-01-13T04:37:58.696Z,12
2017-01-13T04:39:09.503Z,12
2017-01-13T04:40:20.313Z,12
2017-01-13T04:41:31.117Z,12
2017-01-13T04:42:41.920Z,12
2017-01-13T04:43:52.928Z,12
2017-01-13T04:45:03.732Z,12
2017-01-13T04:46:14.538Z,12
2017-01-13T04:47:25.342Z,12
2017-01-13T04:48:36.148Z,12
2017-01-13T04:49:47.300Z,12
2017-01-13T04:50:58.106Z,12
2017-01-13T04:52:08.935Z,12
2017-01-13T04:53:19.738Z,12
2017-01-13T04:54:30.541Z,12
2017-01-13T04:55:41.344Z,12
2017-01-13T04:56:52.150Z,12
2017-01-13T04:58:02.957Z,12
2017-01-13T04:59:13.760Z,12
2017-01-13T05:00:24.566Z,12
2017-01-13T05:01:50.193Z,12
2017-01-13T05:03:00.998Z,12
2017-01-13T05:04:11.802Z,8
2017-01-13T05:05:22.607Z,12
2017-01-13T05:06:33.438Z,12
2017-01-13T05:07:44.591Z,12
2017-01-13T05:08:55.396Z,12
2017-01-13T05:10:06.201Z,12
2017-01-13T05:11:17.010Z,12
2017-01-13T05:12:27.814Z,12
2017-01-13T05:13:38.620Z,12
2017-01-13T05:14:49.423Z,12
2017-01-13T05:16:00.247Z,12
2017-01-13T05:17:11.049Z,12
2017-01-13T05:18:21.859Z,12
2017-01-13T05:19:32.864Z,12
2017-01-13T05:20:43.668Z,12
2017-01-13T05:21:54.496Z,12
2017-01-13T05:23:05.314Z,12
2017-01-13T05:24:16.120Z,12
2017-01-13T05:25:27.130Z,12
2017-01-13T05:26:37.931Z,12
2017-01-13T05:27:48.739Z,12
2017-01-13T05:28:59.540Z,12
2017-01-13T05:30:10.345Z,12
2017-01-13T05:31:21.511Z,12
2017-01-13T05:32:32.320Z,12
2017-01-13T05:33:43.125Z,12
2017-01-13T05:34:53.930Z,12
2017-01-13T05:36:04.732Z,12
2017-01-13T05:37:15.890Z,12
2017-01-13T05:38:26.696Z,12
2017-01-13T05:39:37.496Z,12
2017-01-13T05:40:48.299Z,12
2017-01-13T05:41:59.107Z,12
2017-01-13T05:43:10.266Z,12
2017-01-13T05:44:21.076Z,12
2017-01-13T05:45:31.884Z,12
2017-01-13T05:46:42.686Z,12
2017-01-13T05:47:53.493Z,12
2017-01-13T05:49:04.499Z,12
2017-01-13T05:50:15.304Z,12
2017-01-13T05:51:26.111Z,12
2017-01-13T05:52:36.913Z,12
2017-01-13T05:53:47.727Z,12
2017-01-13T05:54:58.735Z,8
2017-01-13T05:56:38.482Z,12
2017-01-13T05:57:49.288Z,12
2017-01-13T05:59:00.096Z,12
2017-01-13T06:00:11.247Z,12
2017-01-13T06:01:22.052Z,12
2017-01-13T06:02:32.856Z,12
2017-01-13T06:03:43.688Z,12
2017-01-13T06:04:54.496Z,12
2017-01-13T06:06:05.303Z,12
2017-01-13T06:07:16.110Z,12
2017-01-13T06:08:26.917Z,12
2017-01-13T06:09:37.724Z,12
2017-01-13T06:10:48.528Z,12
2017-01-13T06:11:59.535Z,8
2017-01-13T06:13:10.343Z,12
2017-01-13T06:14:21.149Z,12
2017-01-13T06:15:31.952Z,8
2017-01-13T06:16:57.433Z,12
2017-01-13T06:18:08.235Z,12
2017-01-13T06:19:19.044Z,12
2017-01-13T06:20:29.849Z,12
2017-01-13T06:21:40.655Z,8
2017-01-13T06:22:51.460Z,12
2017-01-13T06:24:02.290Z,8
2017-01-13T06:25:13.710Z,12
2017-01-13T06:26:24.515Z,8
2017-01-13T06:27:35.321Z,12
2017-01-13T06:28:46.121Z,12
2017-01-13T06:29:56.927Z,12
2017-01-13T06:31:07.733Z,12
2017-01-13T06:32:18.549Z,12
2017-01-13T06:33:29.971Z,12
2017-01-13T06:34:40.978Z,12
2017-01-13T06:35:51.786Z,12
2017-01-13T06:37:02.615Z,12
2017-01-13T06:38:13.420Z,12
2017-01-13T06:39:24.223Z,12
2017-01-13T06:40:35.230Z,12
2017-01-13T06:41:46.040Z,12
2017-01-13T06:42:56.843Z,12
2017-01-13T06:44:07.657Z,12
2017-01-13T06:45:18.460Z,12
2017-01-13T06:46:29.264Z,12
2017-01-13T06:47:40.072Z,12
2017-01-13T06:48:51.483Z,12
2017-01-13T06:50:02.284Z,12
2017-01-13T06:51:13.090Z,12
2017-01-13T06:52:24.271Z,12
2017-01-13T06:53:35.088Z,12
2017-01-13T06:54:45.895Z,12
2017-01-13T06:55:56.704Z,12
2017-01-13T06:57:07.508Z,12
2017-01-13T06:58:18.666Z,12
2017-01-13T06:59:29.474Z,12
2017-01-13T07:00:40.275Z,12
2017-01-13T07:01:51.079Z,12
2017-01-13T07:03:01.897Z,12
2017-01-13T07:04:12.912Z,12
2017-01-13T07:05:23.719Z,12
2017-01-13T07:06:34.522Z,12
2017-01-13T07:07:45.333Z,12
2017-01-13T07:08:56.141Z,12
2017-01-13T07:11:32.467Z,12
2017-01-13T07:12:43.271Z,12
2017-01-13T07:13:54.080Z,12
2017-01-13T07:15:04.885Z,12
2017-01-13T07:16:15.691Z,12
2017-01-13T07:17:26.498Z,8
2017-01-13T07:18:37.300Z,12
2017-01-13T07:19:48.103Z,12
2017-01-13T07:20:58.907Z,12
2017-01-13T07:22:09.711Z,12
2017-01-13T07:23:20.524Z,12
2017-01-13T07:24:31.336Z,8
2017-01-13T07:25:42.143Z,8
2017-01-13T07:26:53.177Z,12
2017-01-13T07:28:03.990Z,12
2017-01-13T07:29:14.800Z,8
2017-01-13T07:30:25.611Z,8
2017-01-13T07:31:51.088Z,12
2017-01-13T07:33:01.892Z,12
2017-01-13T07:34:12.695Z,12
2017-01-13T07:35:23.509Z,12
2017-01-13T07:36:48.786Z,12
2017-01-13T07:37:59.943Z,12
2017-01-13T07:39:10.748Z,12
2017-01-13T07:40:21.553Z,12
2017-01-13T07:41:32.365Z,12
2017-01-13T07:42:43.182Z,12
2017-01-13T07:43:54.007Z,12
2017-01-13T07:45:04.811Z,12
2017-01-13T07:46:15.622Z,12
2017-01-13T07:47:26.428Z,12
2017-01-13T07:48:37.238Z,12
2017-01-13T07:49:48.044Z,12
2017-01-13T07:50:59.460Z,12
2017-01-13T07:52:10.268Z,12
2017-01-13T07:53:21.075Z,12
2017-01-13T07:54:32.695Z,12
2017-01-13T07:55:43.503Z,12
2017-01-13T07:56:54.310Z,12
2017-01-13T07:58:05.127Z,12
2017-01-13T07:59:15.931Z,12
2017-01-13T08:00:26.744Z,12
2017-01-13T08:01:37.557Z,12
2017-01-13T08:02:48.365Z,12
2017-01-13T08:03:59.176Z,8
2017-01-13T08:05:10.023Z,12
2017-01-13T08:06:20.830Z,12
2017-01-13T08:07:31.634Z,12
2017-01-13T08:08:42.442Z,12
2017-01-13T08:09:53.253Z,12
2017-01-13T08:11:04.060Z,12
2017-01-13T08:12:14.898Z,12
2017-01-13T08:13:25.707Z,12
2017-01-13T08:14:36.527Z,12
2017-01-13T08:15:47.373Z,12
2017-01-13T08:16:58.180Z,12
2017-01-13T08:18:08.993Z,12
2017-01-13T08:19:19.804Z,16
2017-01-13T08:20:30.612Z,12
2017-01-13T08:21:41.444Z,12
2017-01-13T08:22:52.252Z,16
2017-01-13T08:24:03.259Z,16
2017-01-13T08:25:14.065Z,16
2017-01-13T08:26:24.873Z,16
2017-01-13T08:27:35.686Z,20
2017-01-13T08:28:46.487Z,20
2017-01-13T08:29:57.500Z,16
2017-01-13T08:31:08.307Z,20
2017-01-13T08:32:19.115Z,20
2017-01-13T08:33:29.935Z,20
2017-01-13T08:34:40.744Z,24
2017-01-13T08:35:51.806Z,12
2017-01-13T08:37:02.612Z,16
2017-01-13T08:38:13.417Z,20
2017-01-13T08:39:24.222Z,24
2017-01-13T08:40:35.059Z,24
2017-01-13T08:41:45.904Z,28
2017-01-13T08:42:57.132Z,28
2017-01-13T08:44:07.490Z,32
2017-01-13T08:45:17.849Z,36
2017-01-13T08:46:28.203Z,36
2017-01-13T08:47:38.563Z,36
2017-01-13T08:49:03.485Z,40
2017-01-13T08:50:13.839Z,44
2017-01-13T08:51:24.193Z,48
2017-01-13T08:52:34.743Z,52
2017-01-13T08:53:45.096Z,60
2017-01-13T08:54:55.449Z,60
2017-01-13T08:56:05.801Z,60
2017-01-13T08:57:16.159Z,60
2017-01-13T08:58:26.513Z,64
2017-01-13T08:59:37.431Z,68
2017-01-13T09:00:47.786Z,68
2017-01-13T09:01:58.146Z,76
2017-01-13T09:03:08.505Z,80
2017-01-13T09:04:19.059Z,132
2017-01-13T09:05:29.446Z,144
2017-01-13T09:06:39.802Z,156
2017-01-13T09:08:04.718Z,124
2017-01-13T09:09:15.073Z,128
2017-01-13T09:10:25.428Z,132
2017-01-13T09:11:35.785Z,164
2017-01-13T09:12:46.148Z,176
2017-01-13T09:13:56.505Z,168
2017-01-13T09:15:07.062Z,184
2017-01-13T09:16:17.416Z,196
2017-01-13T09:17:28.339Z,216
2017-01-13T09:18:38.692Z,196
2017-01-13T09:19:49.049Z,232
2017-01-13T09:20:59.602Z,316
2017-01-13T09:22:09.968Z,356
2017-01-13T09:23:20.329Z,360
2017-01-13T09:24:30.694Z,320
2017-01-13T09:25:41.050Z,264
2017-01-13T09:26:51.707Z,288
2017-01-13T09:28:02.068Z,220
2017-01-13T09:29:26.990Z,272
2017-01-13T09:30:37.351Z,296
2017-01-13T09:31:47.713Z,296
2017-01-13T09:32:58.079Z,268
2017-01-13T09:34:08.442Z,280
2017-01-13T09:35:18.836Z,288
2017-01-13T09:36:29.194Z,300
2017-01-13T09:37:39.876Z,296
2017-01-13T09:38:50.264Z,276
2017-01-13T09:40:00.620Z,272
2017-01-13T09:41:10.978Z,284
2017-01-13T09:42:21.338Z,268
2017-01-13T09:43:31.695Z,268
2017-01-13T09:44:42.048Z,236
2017-01-13T09:45:52.397Z,216
2017-01-13T09:47:02.754Z,232
2017-01-13T09:48:13.110Z,236
2017-01-13T09:49:23.466Z,232
2017-01-13T09:50:33.822Z,224
2017-01-13T09:51:44.182Z,224
2017-01-13T09:52:54.537Z,216
2017-01-13T09:54:05.464Z,216
2017-01-13T09:55:15.818Z,220
2017-01-13T09:56:26.182Z,244
2017-01-13T09:57:36.538Z,264
2017-01-13T09:58:46.892Z,268
2017-01-13T09:59:57.245Z,260
2017-01-13T10:01:07.605Z,248
2017-01-13T10:02:18.535Z,220
2017-01-13T10:03:28.889Z,204
2017-01-13T10:04:39.245Z,240
2017-01-13T10:05:49.595Z,284
2017-01-13T10:07:00.152Z,300
2017-01-13T10:08:10.536Z,324
2017-01-13T10:09:20.894Z,428
2017-01-13T10:10:45.809Z,420
2017-01-13T10:11:56.167Z,424
2017-01-13T10:13:06.536Z,412
2017-01-13T10:14:16.895Z,480
2017-01-13T10:15:27.280Z,512
2017-01-13T10:16:52.196Z,512
2017-01-13T10:18:17.114Z,492
2017-01-13T10:19:27.467Z,464
2017-01-13T10:20:37.817Z,420
2017-01-13T10:21:48.170Z,440
2017-01-13T10:22:58.723Z,392
2017-01-13T10:24:09.095Z,412
2017-01-13T10:25:19.448Z,452
2017-01-13T10:26:29.841Z,456
2017-01-13T10:27:40.200Z,452
2017-01-13T10:28:50.748Z,396
2017-01-13T10:30:01.103Z,432
2017-01-13T10:31:11.455Z,464
2017-01-13T10:32:21.808Z,508
2017-01-13T10:33:32.162Z,468
2017-01-13T10:34:43.394Z,416
2017-01-13T10:35:53.752Z,364
2017-01-13T10:37:04.112Z,356
2017-01-13T10:38:14.467Z,280
2017-01-13T10:39:24.820Z,360
2017-01-13T10:40:49.951Z,308
2017-01-13T10:42:00.312Z,316
2017-01-13T10:43:10.665Z,368
2017-01-13T10:44:21.026Z,436
2017-01-13T10:45:31.685Z,384
2017-01-13T10:46:56.596Z,328
2017-01-13T10:48:06.956Z,296
2017-01-13T10:49:17.316Z,252
2017-01-13T10:50:28.235Z,268
2017-01-13T10:51:38.590Z,268
2017-01-13T10:52:48.946Z,268
2017-01-13T10:53:59.307Z,268
2017-01-13T10:55:09.668Z,248
2017-01-13T10:56:20.233Z,236
2017-01-13T10:57:30.596Z,244
2017-01-13T10:58:40.960Z,248
2017-01-13T10:59:51.315Z,344
2017-01-13T11:01:16.229Z,396
2017-01-13T11:02:27.152Z,424
2017-01-13T11:03:38.095Z,404
2017-01-13T11:04:49.019Z,388
2017-01-13T11:05:59.382Z,408
2017-01-13T11:07:09.737Z,488
2017-01-13T11:08:20.110Z,516
2017-01-13T11:09:31.099Z,500
2017-01-13T11:10:42.463Z,452
2017-01-13T11:11:52.876Z,408
2017-01-13T11:13:03.423Z,360
2017-01-13T11:14:13.803Z,308
2017-01-13T11:15:24.170Z,276
2017-01-13T11:16:34.528Z,264
2017-01-13T11:17:44.886Z,264
2017-01-13T11:18:55.346Z,284
2017-01-13T11:20:05.702Z,316
2017-01-13T11:21:16.073Z,352
2017-01-13T11:22:26.439Z,380
2017-01-13T11:23:36.799Z,428
2017-01-13T11:24:47.157Z,492
2017-01-13T11:25:57.519Z,568
2017-01-13T11:27:07.877Z,660
2017-01-13T11:28:18.238Z,724
2017-01-13T11:29:28.599Z,732
2017-01-13T11:30:38.957Z,720
2017-01-13T11:31:49.318Z,708
2017-01-13T11:34:24.592Z,756
2017-01-13T11:35:34.949Z,740
